KBGD/BGD METAR and TAF weather

Enter ICAO airport designator
Station Type Date Time Source
KBGD METAR 2019/06/16 06:51 UTC NOAA

KBGD 160651Z AUTO 04006KT 10SM BKN100 19/12 A2995 RMK AO2 SLP101 T01940122


Station Type Date Time Source
KBGD Decoded METAR 2019/06/16 06:51 UTC NOAA

BORGER HUTCHINSON CO AIRPORT , TX, United States (KBGD) 35-42N 101-24W 927M
Jun 16, 2019 - 02:51 AM EDT / 2019.06.16 0651 UTC
Wind: from the NE (040 degrees) at 7 MPH (6 KT):0
Visibility: 10 mile(s):0
Sky conditions: mostly cloudy
Temperature: 66.9 F (19.4 C)
Dew Point: 54.0 F (12.2 C)
Relative Humidity: 63%
Pressure (altimeter): 29.95 in. Hg (1014 hPa)
ob: KBGD 160651Z AUTO 04006KT 10SM BKN100 19/12 A2995 RMK AO2 SLP101 T01940122
cycle: 7

Station Type Date Time Source
KBGD TAF UTC NOAA

Error!

Example: see airport list